ENOC weather

Oseberg C Platform
Norway

Public forecast

Using degrees Celsius for public forecast. Weather courtesy of forecast.io.

Closest aviation weather report (METAR) to Oseberg C Platform

Closest report is Oseberg A Platform, 7.1 nm (13.2 km) SSE. Retrieved 2020/04/05 15:50 UTC (34 minutes ago):

ENOA 051550Z 16038KT 8000 FEW010 BKN060 08/05 Q1013 W///S5

Closest aviation forecast (TAF) to Oseberg C Platform

Closest forecast is Oseberg A Platform, 7.1 nm (13.2 km) SSE. Retrieved 2020/04/05 15:57 UTC (27 minutes ago):

TAF TAF ENOA 051400Z 0515/0615 17035KT 8000 FEW010 SCT050 BECMG 0518/0521 16045KT TEMPO 0610/0614 4000 SHRA BKN012CB BECMG 0613/0615 20028KT